Knox Cnty, Mount Vernon, OH, OH

5:59 PM EDT on April 23, 2017 (GMT -0400)
Knox Cnty, Mount Vernon, OH

Weather History for K4I3 - June, 2014

Change the Weather History Date:

Saturday, June 7, 2014

  Actual Average (KVTA) Record (KVTA)
Temperature  
Mean Temperature 66 °F -  
Max Temperature 80 °F 79 °F 91 °F (2007)
Min Temperature 53 °F 55 °F 39 °F (1958)
Cooling Degree Days 2    
Growing Degree Days 16 (Base 50)    
Moisture  
Dew Point 50 °F    
Average Humidity 55    
Maximum Humidity 94    
Minimum Humidity 32    
Precipitation  
Precipitation 0.00 in - - ()
Sea Level Pressure  
Sea Level Pressure 30.01 in    
Wind  
Wind Speed 3 mph (East)    
Max Wind Speed 8 mph    
Max Gust Speed -    
Visibility 10 miles    
Events      
Averages and records for this station are not official NWS values.
T = Trace of Precipitation, MM = Missing Value Source: NWS Daily Summary

Daily Weather History Graph

Daily Weather History Graph

Search for Another Location

Airport or City:

Trip Planner

Search our weather history database for the weather conditions in past years. The results will help you decide how hot, cold, wet, or windy it might be!

Date:

Astronomy

Jun. 07, 2014 Rise Set
Actual Time 6:00 AM EDT 8:57 PM EDT
Civil Twilight 5:27 AM EDT 9:30 PM EDT
Nautical Twilight 4:46 AM EDT 10:12 PM EDT
Astronomical Twilight 3:58 AM EDT 11:00 PM EDT
Moon 3:13 PM EDT (6/7) 2:22 AM EDT (6/7)
Length of Visible Light 16h 03m
Length of Day
14h 57m
Waxing Gibbous, 67% of the Moon is Illuminated
Jun 7
Waxing Gibbous
Jun 13
Full
Jun 19
Last Quarter
Jun 27
New
Jul 5
First Quarter

Hourly Weather History & Observations

Time (EDT) Temp. Dew Point Humidity Pressure Visibility Wind Dir Wind Speed Gust Speed Precip Events Conditions
12:15 AM 60.8 °F 51.8 °F 72% 30.06 in 10.0 mi NE 4.6 mph - N/A   Clear
12:35 AM 62.6 °F 50.0 °F 63% 30.05 in 10.0 mi Calm Calm - N/A   Clear
12:55 AM 60.8 °F 50.0 °F 68% 30.05 in 10.0 mi Calm Calm - N/A   Clear
1:16 AM 59.0 °F 50.0 °F 72% 30.04 in 10.0 mi Calm Calm - N/A   Clear
1:35 AM 59.0 °F 50.0 °F 72% 30.04 in 10.0 mi Calm Calm - N/A   Clear
1:56 AM 59.0 °F 50.0 °F 72% 30.04 in 10.0 mi Calm Calm - N/A   Clear
2:15 AM 57.2 °F 50.0 °F 77% 30.04 in 10.0 mi Calm Calm - N/A   Clear
2:35 AM 57.2 °F 50.0 °F 77% 30.04 in 10.0 mi Calm Calm - N/A   Clear
2:56 AM 57.2 °F 50.0 °F 77% 30.04 in 10.0 mi NNE 4.6 mph - N/A   Clear
3:15 AM 55.4 °F 50.0 °F 82% 30.05 in 10.0 mi North 3.5 mph - N/A   Clear
3:35 AM 55.4 °F 51.8 °F 88% 30.04 in 10.0 mi NNE 5.8 mph - N/A   Clear
3:56 AM 55.4 °F 51.8 °F 88% 30.04 in 10.0 mi North 4.6 mph - N/A   Clear
4:15 AM 55.4 °F 51.8 °F 88% 30.04 in 10.0 mi North 3.5 mph - N/A   Clear
4:35 AM 55.4 °F 51.8 °F 88% 30.04 in 10.0 mi NNE 4.6 mph - N/A   Clear
4:56 AM 53.6 °F 51.8 °F 94% 30.03 in 10.0 mi NNE 5.8 mph - N/A   Clear
5:15 AM 53.6 °F 51.8 °F 94% 30.04 in 10.0 mi North 3.5 mph - N/A   Clear
5:35 AM 53.6 °F 50.0 °F 88% 30.04 in 10.0 mi North 3.5 mph - N/A   Clear
5:55 AM 53.6 °F 51.8 °F 94% 30.04 in 10.0 mi NNE 4.6 mph - N/A   Clear
6:15 AM 53.6 °F 50.0 °F 88% 30.05 in 10.0 mi Calm Calm - N/A   Clear
6:36 AM 53.6 °F 50.0 °F 88% 30.05 in 10.0 mi Calm Calm - N/A   Clear
6:55 AM 55.4 °F 51.8 °F 88% 30.05 in 10.0 mi NNE 3.5 mph - N/A   Clear
7:15 AM 57.2 °F 53.6 °F 88% 30.06 in 10.0 mi Calm Calm - N/A   Clear
7:36 AM 59.0 °F 55.4 °F 88% 30.08 in 10.0 mi Calm Calm - N/A   Clear
8:15 AM 64.4 °F 51.8 °F 64% 30.09 in 10.0 mi Calm Calm - N/A   Clear
9:15 AM 68.0 °F 50.0 °F 52% 30.09 in 10.0 mi Calm Calm - N/A   Clear
9:36 AM 69.8 °F 51.8 °F 53% 30.09 in 10.0 mi Calm Calm - N/A   Clear
9:55 AM 69.8 °F 51.8 °F 53% 30.08 in 10.0 mi Calm Calm - N/A   Clear
10:15 AM 71.6 °F 48.2 °F 43% 30.07 in 10.0 mi SE 3.5 mph - N/A   Clear
10:36 AM 73.4 °F 44.6 °F 36% 30.07 in 10.0 mi ESE 3.5 mph - N/A   Clear
10:55 AM 73.4 °F 46.4 °F 38% 30.07 in 10.0 mi SE 4.6 mph - N/A   Clear
11:15 AM 75.2 °F 46.4 °F 36% 30.07 in 10.0 mi East 4.6 mph - N/A   Clear
11:36 AM 75.2 °F 48.2 °F 38% 30.06 in 10.0 mi ESE 4.6 mph - N/A   Clear
11:55 AM 75.2 °F 50.0 °F 41% 30.06 in 10.0 mi ENE 6.9 mph - N/A   Clear
12:15 PM 75.2 °F 50.0 °F 41% 30.06 in 10.0 mi East 5.8 mph - N/A   Clear
12:36 PM 77.0 °F 48.2 °F 36% 30.06 in 10.0 mi Calm Calm - N/A   Clear
12:55 PM 77.0 °F 50.0 °F 39% 30.05 in 10.0 mi SE 5.8 mph - N/A   Clear
1:15 PM 77.0 °F 48.2 °F 36% 30.04 in 10.0 mi Calm Calm - N/A   Clear
1:36 PM 77.0 °F 50.0 °F 39% 30.04 in 10.0 mi ESE 4.6 mph - N/A   Clear
1:55 PM 77.0 °F 48.2 °F 36% 30.03 in 10.0 mi Calm Calm - N/A   Clear
2:15 PM 78.8 °F 50.0 °F 36% 30.03 in 10.0 mi Calm Calm - N/A   Clear
2:36 PM 78.8 °F 48.2 °F 34% 30.02 in 10.0 mi SW 4.6 mph - N/A   Clear
2:55 PM 78.8 °F 48.2 °F 34% 30.02 in 10.0 mi SSE 4.6 mph - N/A   Clear
3:16 PM 78.8 °F 50.0 °F 36% 30.01 in 10.0 mi ESE 6.9 mph - N/A   Clear
3:35 PM 78.8 °F 48.2 °F 34% 30.00 in 10.0 mi Calm Calm - N/A   Clear
3:56 PM 80.6 °F 50.0 °F 34% 29.98 in 10.0 mi ENE 3.5 mph - N/A   Clear
4:16 PM 80.6 °F 50.0 °F 34% 29.98 in 10.0 mi SE 8.1 mph - N/A   Clear
4:35 PM 80.6 °F 50.0 °F 34% 29.98 in 10.0 mi ESE 4.6 mph - N/A   Clear
4:56 PM 78.8 °F 48.2 °F 34% 29.97 in 10.0 mi SSE 5.8 mph - N/A   Clear
5:16 PM 78.8 °F 48.2 °F 34% 29.97 in 10.0 mi Calm Calm - N/A   Clear
5:35 PM 80.6 °F 48.2 °F 32% 29.97 in 10.0 mi East 5.8 mph - N/A   Clear
5:56 PM 78.8 °F 48.2 °F 34% 29.97 in 10.0 mi SE 4.6 mph - N/A   Clear
6:16 PM 78.8 °F 48.2 °F 34% 29.97 in 10.0 mi SE 5.8 mph - N/A   Clear
6:36 PM 78.8 °F 46.4 °F 32% 29.96 in 10.0 mi Calm Calm - N/A   Clear
6:56 PM 78.8 °F 46.4 °F 32% 29.94 in 10.0 mi SE 6.9 mph - N/A   Clear
7:15 PM 77.0 °F 46.4 °F 34% 29.95 in 10.0 mi SSE 3.5 mph - N/A   Clear
7:36 PM 77.0 °F 46.4 °F 34% 29.95 in 10.0 mi Calm Calm - N/A   Clear
7:56 PM 75.2 °F 50.0 °F 41% 29.95 in 10.0 mi ESE 3.5 mph - N/A   Clear
8:15 PM 73.4 °F 51.8 °F 47% 29.96 in 10.0 mi South 4.6 mph - N/A   Clear
8:36 PM 71.6 °F 51.8 °F 50% 29.95 in 10.0 mi East 3.5 mph - N/A   Clear
8:56 PM 71.6 °F 50.0 °F 46% 29.94 in 10.0 mi ESE 3.5 mph - N/A   Clear
9:15 PM 69.8 °F 51.8 °F 53% 29.94 in 10.0 mi Calm Calm - N/A   Clear
9:36 PM 69.8 °F 50.0 °F 49% 29.94 in 10.0 mi East 3.5 mph - N/A   Clear
9:56 PM 68.0 °F 50.0 °F 52% 29.93 in 10.0 mi East 4.6 mph - N/A   Clear
10:15 PM 68.0 °F 50.0 °F 52% 29.93 in 10.0 mi Calm Calm - N/A   Clear
10:36 PM 68.0 °F 48.2 °F 49% 29.93 in 10.0 mi East 4.6 mph - N/A   Clear
10:56 PM 66.2 °F 48.2 °F 52% 29.93 in 10.0 mi East 4.6 mph - N/A   Clear
11:16 PM 66.2 °F 50.0 °F 56% 29.92 in 10.0 mi East 3.5 mph - N/A   Clear
11:36 PM 66.2 °F 48.2 °F 52% 29.92 in 10.0 mi East 3.5 mph - N/A   Clear
11:55 PM 66.2 °F 48.2 °F 52% 29.92 in 10.0 mi Calm Calm - N/A   Clear